sensor_id;sensor_type;location;lat;lon;timestamp;pressure;altitude;pressure_sealevel;temperature;humidity
4570;BME280;2297;51.442;6.996;2022-10-31T00:00:08;100796.88;;;17.25;55.11
4570;BME280;2297;51.442;6.996;2022-10-31T00:02:38;100799.44;;;17.28;54.95
4570;BME280;2297;51.442;6.996;2022-10-31T00:05:05;100806.50;;;17.29;54.97
4570;BME280;2297;51.442;6.996;2022-10-31T00:07:31;100799.44;;;17.28;54.84
4570;BME280;2297;51.442;6.996;2022-10-31T00:09:58;100800.72;;;17.18;55.15
4570;BME280;2297;51.442;6.996;2022-10-31T00:12:25;100798.06;;;17.18;55.15
4570;BME280;2297;51.442;6.996;2022-10-31T00:14:52;100790.88;;;17.20;55.22
4570;BME280;2297;51.442;6.996;2022-10-31T00:17:18;100796.22;;;17.20;55.36
4570;BME280;2297;51.442;6.996;2022-10-31T00:19:46;100793.53;;;17.20;55.42
4570;BME280;2297;51.442;6.996;2022-10-31T00:22:13;100795.53;;;17.15;55.46
4570;BME280;2297;51.442;6.996;2022-10-31T00:24:40;100785.78;;;17.13;55.46
4570;BME280;2297;51.442;6.996;2022-10-31T00:27:07;100792.03;;;17.12;55.44
4570;BME280;2297;51.442;6.996;2022-10-31T00:29:33;100791.34;;;17.07;55.66
4570;BME280;2297;51.442;6.996;2022-10-31T00:32:00;100786.22;;;17.03;55.89
4570;BME280;2297;51.442;6.996;2022-10-31T00:34:26;100794.31;;;17.00;55.92
4570;BME280;2297;51.442;6.996;2022-10-31T00:36:54;100792.63;;;16.99;56.09
4570;BME280;2297;51.442;6.996;2022-10-31T00:39:21;100793.34;;;17.02;56.01
4570;BME280;2297;51.442;6.996;2022-10-31T00:41:48;100795.97;;;17.04;55.96
4570;BME280;2297;51.442;6.996;2022-10-31T00:44:14;100793.25;;;17.05;55.78
4570;BME280;2297;51.442;6.996;2022-10-31T00:46:41;100796.81;;;17.04;55.88
4570;BME280;2297;51.442;6.996;2022-10-31T00:49:07;100793.25;;;17.05;55.77
4570;BME280;2297;51.442;6.996;2022-10-31T00:51:34;100802.91;;;17.08;55.86
4570;BME280;2297;51.442;6.996;2022-10-31T00:54:02;100794.84;;;17.09;55.66
4570;BME280;2297;51.442;6.996;2022-10-31T00:56:29;100803.63;;;17.11;55.72
4570;BME280;2297;51.442;6.996;2022-10-31T00:58:56;100796.44;;;17.13;56.04
4570;BME280;2297;51.442;6.996;2022-10-31T01:01:22;100803.53;;;17.15;55.62
4570;BME280;2297;51.442;6.996;2022-10-31T01:03:49;100801.78;;;17.13;55.43
4570;BME280;2297;51.442;6.996;2022-10-31T01:06:16;100802.78;;;17.11;55.54
4570;BME280;2297;51.442;6.996;2022-10-31T01:08:42;100790.25;;;17.13;55.54
4570;BME280;2297;51.442;6.996;2022-10-31T01:11:13;100809.78;;;17.13;55.64
4570;BME280;2297;51.442;6.996;2022-10-31T01:13:40;100799.25;;;17.10;55.81
4570;BME280;2297;51.442;6.996;2022-10-31T01:16:09;100801.94;;;17.10;55.88
4570;BME280;2297;51.442;6.996;2022-10-31T01:18:36;100800.19;;;17.09;55.72
4570;BME280;2297;51.442;6.996;2022-10-31T01:21:07;100809.13;;;17.08;55.68
4570;BME280;2297;51.442;6.996;2022-10-31T01:23:35;100802.03;;;17.07;55.81
4570;BME280;2297;51.442;6.996;2022-10-31T01:26:05;100803.91;;;17.05;55.82
4570;BME280;2297;51.442;6.996;2022-10-31T01:28:34;100812.09;;;17.01;55.89
4570;BME280;2297;51.442;6.996;2022-10-31T01:31:03;100809.47;;;16.99;56.04
4570;BME280;2297;51.442;6.996;2022-10-31T01:33:30;100801.97;;;16.87;56.13
4570;BME280;2297;51.442;6.996;2022-10-31T01:35:57;100815.31;;;16.87;56.08
4570;BME280;2297;51.442;6.996;2022-10-31T01:38:23;100818.19;;;16.80;56.19
4570;BME280;2297;51.442;6.996;2022-10-31T01:40:50;100819.09;;;16.79;56.38
4570;BME280;2297;51.442;6.996;2022-10-31T01:43:17;100803.03;;;16.81;56.44
4570;BME280;2297;51.442;6.996;2022-10-31T01:45:50;100808.56;;;16.76;56.74
4570;BME280;2297;51.442;6.996;2022-10-31T01:48:21;100794.19;;;16.80;56.57
4570;BME280;2297;51.442;6.996;2022-10-31T01:50:51;100793.25;;;16.82;56.41
4570;BME280;2297;51.442;6.996;2022-10-31T01:53:35;100796.75;;;16.84;56.44
4570;BME280;2297;51.442;6.996;2022-10-31T01:56:03;100793.09;;;16.86;56.18
4570;BME280;2297;51.442;6.996;2022-10-31T01:58:30;100795.66;;;16.89;56.11
4570;BME280;2297;51.442;6.996;2022-10-31T02:01:00;100793.97;;;16.87;56.21
4570;BME280;2297;51.442;6.996;2022-10-31T02:03:28;100779.00;;;16.83;56.42
4570;BME280;2297;51.442;6.996;2022-10-31T02:05:56;100778.16;;;16.80;56.45
4570;BME280;2297;51.442;6.996;2022-10-31T02:08:26;100775.50;;;16.80;56.44
4570;BME280;2297;51.442;6.996;2022-10-31T02:10:54;100773.75;;;16.79;56.57
4570;BME280;2297;51.442;6.996;2022-10-31T02:13:22;100781.91;;;16.76;56.61
4570;BME280;2297;51.442;6.996;2022-10-31T02:15:53;100769.47;;;16.75;56.44
4570;BME280;2297;51.442;6.996;2022-10-31T02:18:22;100762.41;;;16.74;56.70
4570;BME280;2297;51.442;6.996;2022-10-31T02:20:57;100765.13;;;16.73;56.78
4570;BME280;2297;51.442;6.996;2022-10-31T02:26:41;100780.38;;;16.69;56.77
4570;BME280;2297;51.442;6.996;2022-10-31T02:32:27;100777.91;;;16.65;56.93
4570;BME280;2297;51.442;6.996;2022-10-31T02:34:57;100779.03;;;16.59;57.13
4570;BME280;2297;51.442;6.996;2022-10-31T02:37:33;100772.88;;;16.57;57.27
4570;BME280;2297;51.442;6.996;2022-10-31T02:40:08;100777.63;;;16.49;57.39
4570;BME280;2297;51.442;6.996;2022-10-31T02:42:43;100783.72;;;16.52;57.40
4570;BME280;2297;51.442;6.996;2022-10-31T02:45:15;100774.03;;;16.50;57.26
4570;BME280;2297;51.442;6.996;2022-10-31T02:47:48;100777.50;;;16.52;57.30
4570;BME280;2297;51.442;6.996;2022-10-31T02:50:22;100786.44;;;16.51;57.39
4570;BME280;2297;51.442;6.996;2022-10-31T02:52:50;100782.97;;;16.49;57.28
4570;BME280;2297;51.442;6.996;2022-10-31T02:55:42;100781.22;;;16.47;57.51
4570;BME280;2297;51.442;6.996;2022-10-31T02:58:14;100772.53;;;16.42;57.61
4570;BME280;2297;51.442;6.996;2022-10-31T03:00:49;100779.59;;;16.43;57.68
4570;BME280;2297;51.442;6.996;2022-10-31T03:03:25;100784.06;;;16.43;57.56
4570;BME280;2297;51.442;6.996;2022-10-31T03:06:00;100784.94;;;16.43;57.53
4570;BME280;2297;51.442;6.996;2022-10-31T03:08:35;100788.53;;;16.42;57.42
4570;BME280;2297;51.442;6.996;2022-10-31T03:11:07;100790.47;;;16.39;57.60
4570;BME280;2297;51.442;6.996;2022-10-31T03:13:37;100791.38;;;16.38;57.81
4570;BME280;2297;51.442;6.996;2022-10-31T03:16:10;100787.03;;;16.35;57.68
4570;BME280;2297;51.442;6.996;2022-10-31T03:18:44;100782.69;;;16.33;57.81
4570;BME280;2297;51.442;6.996;2022-10-31T03:21:17;100784.66;;;16.27;57.82
4570;BME280;2297;51.442;6.996;2022-10-31T03:23:48;100784.59;;;16.29;57.85
4570;BME280;2297;51.442;6.996;2022-10-31T03:26:17;100787.38;;;16.26;57.69
4570;BME280;2297;51.442;6.996;2022-10-31T03:28:48;100785.75;;;16.22;58.17
4570;BME280;2297;51.442;6.996;2022-10-31T03:31:25;100784.88;;;16.21;58.08
4570;BME280;2297;51.442;6.996;2022-10-31T03:33:56;100781.41;;;16.19;58.26
4570;BME280;2297;51.442;6.996;2022-10-31T03:36:26;100778.81;;;16.18;57.98
4570;BME280;2297;51.442;6.996;2022-10-31T03:38:54;100779.84;;;16.13;58.21
4570;BME280;2297;51.442;6.996;2022-10-31T03:41:24;100771.88;;;16.12;58.34
4570;BME280;2297;51.442;6.996;2022-10-31T03:44:01;100776.47;;;16.08;58.33
4570;BME280;2297;51.442;6.996;2022-10-31T03:46:30;100776.56;;;16.05;58.36
4570;BME280;2297;51.442;6.996;2022-10-31T03:48:58;100779.22;;;16.05;58.44
4570;BME280;2297;51.442;6.996;2022-10-31T03:51:29;100779.34;;;16.02;58.64
4570;BME280;2297;51.442;6.996;2022-10-31T03:54:03;100773.16;;;16.02;58.39
4570;BME280;2297;51.442;6.996;2022-10-31T03:56:34;100772.28;;;16.01;58.56
4570;BME280;2297;51.442;6.996;2022-10-31T03:59:05;100783.03;;;15.98;58.63
4570;BME280;2297;51.442;6.996;2022-10-31T04:01:36;100786.72;;;15.94;58.65
4570;BME280;2297;51.442;6.996;2022-10-31T04:04:07;100780.50;;;15.93;58.56
4570;BME280;2297;51.442;6.996;2022-10-31T04:06:36;100786.72;;;15.94;58.70
4570;BME280;2297;51.442;6.996;2022-10-31T04:09:05;100786.00;;;15.89;58.90
4570;BME280;2297;51.442;6.996;2022-10-31T04:11:35;100779.81;;;15.88;58.59
4570;BME280;2297;51.442;6.996;2022-10-31T04:14:04;100786.81;;;15.91;58.39
4570;BME280;2297;51.442;6.996;2022-10-31T04:16:31;100779.84;;;15.87;58.63
4570;BME280;2297;51.442;6.996;2022-10-31T04:18:58;100772.91;;;15.83;58.77
4570;BME280;2297;51.442;6.996;2022-10-31T04:21:29;100774.78;;;15.80;58.74
4570;BME280;2297;51.442;6.996;2022-10-31T04:23:57;100778.22;;;15.83;58.76
4570;BME280;2297;51.442;6.996;2022-10-31T04:26:24;100772.91;;;15.83;58.48
4570;BME280;2297;51.442;6.996;2022-10-31T04:28:50;100766.59;;;15.85;58.41
4570;BME280;2297;51.442;6.996;2022-10-31T04:31:17;100764.84;;;15.84;58.50
4570;BME280;2297;51.442;6.996;2022-10-31T04:33:44;100769.47;;;15.79;58.55
4570;BME280;2297;51.442;6.996;2022-10-31T04:36:10;100765.97;;;15.78;58.65
4570;BME280;2297;51.442;6.996;2022-10-31T04:38:39;100765.97;;;15.78;58.78
4570;BME280;2297;51.442;6.996;2022-10-31T04:41:05;100775.75;;;15.78;58.82
4570;BME280;2297;51.442;6.996;2022-10-31T04:43:32;100768.56;;;15.80;58.59
4570;BME280;2297;51.442;6.996;2022-10-31T04:45:58;100769.44;;;15.80;58.49
4570;BME280;2297;51.442;6.996;2022-10-31T04:48:25;100761.50;;;15.79;58.38
4570;BME280;2297;51.442;6.996;2022-10-31T04:50:52;100758.88;;;15.77;58.61
4570;BME280;2297;51.442;6.996;2022-10-31T04:53:19;100755.44;;;15.75;58.67
4570;BME280;2297;51.442;6.996;2022-10-31T04:55:46;100754.44;;;15.78;58.64
4570;BME280;2297;51.442;6.996;2022-10-31T04:58:13;100754.59;;;15.73;58.71
4570;BME280;2297;51.442;6.996;2022-10-31T05:00:40;100762.59;;;15.73;58.86
4570;BME280;2297;51.442;6.996;2022-10-31T05:03:06;100758.19;;;15.72;58.65
4570;BME280;2297;51.442;6.996;2022-10-31T05:05:33;100751.13;;;15.71;58.73
4570;BME280;2297;51.442;6.996;2022-10-31T05:08:00;100747.66;;;15.69;58.64
4570;BME280;2297;51.442;6.996;2022-10-31T05:10:29;100749.44;;;15.69;58.54
4570;BME280;2297;51.442;6.996;2022-10-31T05:12:58;100749.59;;;15.64;58.49
4570;BME280;2297;51.442;6.996;2022-10-31T05:15:26;100747.81;;;15.65;58.61
4570;BME280;2297;51.442;6.996;2022-10-31T05:17:54;100746.94;;;15.64;58.63
4570;BME280;2297;51.442;6.996;2022-10-31T05:20:25;100745.09;;;15.66;58.72
4570;BME280;2297;51.442;6.996;2022-10-31T05:22:54;100742.50;;;15.65;58.61
4570;BME280;2297;51.442;6.996;2022-10-31T05:25:22;100741.66;;;15.62;58.54
4570;BME280;2297;51.442;6.996;2022-10-31T05:27:51;100734.66;;;15.60;58.63
4570;BME280;2297;51.442;6.996;2022-10-31T05:30:21;100719.59;;;15.59;58.73
4570;BME280;2297;51.442;6.996;2022-10-31T05:32:50;100724.06;;;15.58;58.54
4570;BME280;2297;51.442;6.996;2022-10-31T05:35:19;100722.38;;;15.56;58.47
4570;BME280;2297;51.442;6.996;2022-10-31T05:37:45;100725.88;;;15.58;58.48
4570;BME280;2297;51.442;6.996;2022-10-31T05:40:13;100726.78;;;15.57;58.65
4570;BME280;2297;51.442;6.996;2022-10-31T05:42:41;100727.72;;;15.56;58.39
4570;BME280;2297;51.442;6.996;2022-10-31T05:45:09;100726.78;;;15.57;58.43
4570;BME280;2297;51.442;6.996;2022-10-31T05:47:37;100733.03;;;15.56;58.54
4570;BME280;2297;51.442;6.996;2022-10-31T05:50:05;100730.38;;;15.56;58.58
4570;BME280;2297;51.442;6.996;2022-10-31T05:52:32;100730.44;;;15.54;58.43
4570;BME280;2297;51.442;6.996;2022-10-31T05:54:59;100732.31;;;15.51;58.64
4570;BME280;2297;51.442;6.996;2022-10-31T05:57:26;100729.53;;;15.54;58.79
4570;BME280;2297;51.442;6.996;2022-10-31T05:59:52;100728.69;;;15.53;58.58
4570;BME280;2297;51.442;6.996;2022-10-31T06:02:19;100721.69;;;15.51;58.79
4570;BME280;2297;51.442;6.996;2022-10-31T06:04:47;100730.56;;;15.50;58.73
4570;BME280;2297;51.442;6.996;2022-10-31T06:07:14;100729.66;;;15.51;58.65
4570;BME280;2297;51.442;6.996;2022-10-31T06:09:40;100719.06;;;15.49;58.66
4570;BME280;2297;51.442;6.996;2022-10-31T06:12:07;100719.13;;;15.47;58.85
4570;BME280;2297;51.442;6.996;2022-10-31T06:14:34;100722.72;;;15.46;58.94
4570;BME280;2297;51.442;6.996;2022-10-31T06:17:00;100719.34;;;15.41;58.98
4570;BME280;2297;51.442;6.996;2022-10-31T06:19:53;100728.22;;;15.40;58.90
4570;BME280;2297;51.442;6.996;2022-10-31T06:22:20;100726.59;;;15.36;58.99
4570;BME280;2297;51.442;6.996;2022-10-31T06:24:46;100722.25;;;15.34;59.07
4570;BME280;2297;51.442;6.996;2022-10-31T06:27:13;100729.38;;;15.33;59.12
4570;BME280;2297;51.442;6.996;2022-10-31T06:29:39;100719.09;;;15.22;59.36
4570;BME280;2297;51.442;6.996;2022-10-31T06:32:09;100721.00;;;15.19;59.35
4570;BME280;2297;51.442;6.996;2022-10-31T06:34:36;100727.16;;;15.19;59.57
4570;BME280;2297;51.442;6.996;2022-10-31T06:37:05;100721.00;;;15.19;59.69
4570;BME280;2297;51.442;6.996;2022-10-31T06:39:32;100725.41;;;15.20;59.45
4570;BME280;2297;51.442;6.996;2022-10-31T06:41:58;100728.88;;;15.22;59.48
4570;BME280;2297;51.442;6.996;2022-10-31T06:44:25;100720.09;;;15.20;59.62
4570;BME280;2297;51.442;6.996;2022-10-31T06:46:52;100722.56;;;15.24;59.65
4570;BME280;2297;51.442;6.996;2022-10-31T06:49:18;100718.13;;;15.25;59.80
4570;BME280;2297;51.442;6.996;2022-10-31T06:51:47;100726.91;;;15.27;59.36
4570;BME280;2297;51.442;6.996;2022-10-31T06:54:15;100736.47;;;15.33;59.45
4570;BME280;2297;51.442;6.996;2022-10-31T06:56:45;100740.81;;;15.35;59.42
4570;BME280;2297;51.442;6.996;2022-10-31T06:59:12;100745.22;;;15.36;59.20
4570;BME280;2297;51.442;6.996;2022-10-31T07:01:38;100736.16;;;15.42;59.42
4570;BME280;2297;51.442;6.996;2022-10-31T07:04:05;100743.16;;;15.46;59.24
4570;BME280;2297;51.442;6.996;2022-10-31T07:06:32;100738.69;;;15.46;59.24
4570;BME280;2297;51.442;6.996;2022-10-31T07:08:58;100744.06;;;15.45;59.26
4570;BME280;2297;51.442;6.996;2022-10-31T07:11:27;100747.56;;;15.45;59.25
4570;BME280;2297;51.442;6.996;2022-10-31T07:13:53;100749.31;;;15.46;59.19
4570;BME280;2297;51.442;6.996;2022-10-31T07:16:20;100754.66;;;15.46;59.33
4570;BME280;2297;51.442;6.996;2022-10-31T07:18:46;100742.16;;;15.49;59.14
4570;BME280;2297;51.442;6.996;2022-10-31T07:21:13;100741.28;;;15.48;59.35
4570;BME280;2297;51.442;6.996;2022-10-31T07:23:40;100738.56;;;15.50;58.98
4570;BME280;2297;51.442;6.996;2022-10-31T07:26:07;100745.50;;;15.54;59.12
4570;BME280;2297;51.442;6.996;2022-10-31T07:28:35;100746.34;;;15.56;59.13
4570;BME280;2297;51.442;6.996;2022-10-31T07:31:02;100742.81;;;15.55;58.81
4570;BME280;2297;51.442;6.996;2022-10-31T07:33:28;100749.00;;;15.56;58.89
4570;BME280;2297;51.442;6.996;2022-10-31T07:35:55;100743.69;;;15.56;59.13
4570;BME280;2297;51.442;6.996;2022-10-31T07:38:22;100747.97;;;15.60;59.02
4570;BME280;2297;51.442;6.996;2022-10-31T07:40:50;100740.97;;;15.57;58.96
4570;BME280;2297;51.442;6.996;2022-10-31T07:43:18;100745.31;;;15.60;59.10
4570;BME280;2297;51.442;6.996;2022-10-31T07:45:50;100746.94;;;15.64;58.88
4570;BME280;2297;51.442;6.996;2022-10-31T07:48:17;100749.66;;;15.62;59.11
4570;BME280;2297;51.442;6.996;2022-10-31T07:50:44;100751.34;;;15.65;58.94
4570;BME280;2297;51.442;6.996;2022-10-31T07:53:12;100743.25;;;15.68;58.87
4570;BME280;2297;51.442;6.996;2022-10-31T07:55:39;100739.53;;;15.72;58.85
4570;BME280;2297;51.442;6.996;2022-10-31T07:58:07;100743.16;;;15.71;58.78
4570;BME280;2297;51.442;6.996;2022-10-31T08:00:36;100743.03;;;15.74;58.79
4570;BME280;2297;51.442;6.996;2022-10-31T08:03:05;100743.88;;;15.75;58.75
4570;BME280;2297;51.442;6.996;2022-10-31T08:05:33;100753.56;;;15.77;58.88
4570;BME280;2297;51.442;6.996;2022-10-31T08:08:00;100746.53;;;15.76;58.70
4570;BME280;2297;51.442;6.996;2022-10-31T08:10:27;100753.47;;;15.80;58.48
4570;BME280;2297;51.442;6.996;2022-10-31T08:12:55;100753.47;;;15.80;58.37
4570;BME280;2297;51.442;6.996;2022-10-31T08:15:23;100759.66;;;15.81;58.54
4570;BME280;2297;51.442;6.996;2022-10-31T08:17:49;100755.31;;;15.78;58.36
4570;BME280;2297;51.442;6.996;2022-10-31T08:20:17;100757.84;;;15.82;58.47
4570;BME280;2297;51.442;6.996;2022-10-31T08:22:52;100753.34;;;15.84;58.38
4570;BME280;2297;51.442;6.996;2022-10-31T08:25:19;100756.94;;;15.83;58.20
4570;BME280;2297;51.442;6.996;2022-10-31T08:27:48;100756.84;;;15.86;58.21
4570;BME280;2297;51.442;6.996;2022-10-31T08:30:15;100755.81;;;15.90;57.92
4570;BME280;2297;51.442;6.996;2022-10-31T08:32:42;100759.19;;;15.95;58.19
4570;BME280;2297;51.442;6.996;2022-10-31T08:35:08;100752.91;;;15.96;57.93
4570;BME280;2297;51.442;6.996;2022-10-31T08:37:36;100750.19;;;15.99;57.77
4570;BME280;2297;51.442;6.996;2022-10-31T08:40:04;100750.97;;;16.01;57.66
4570;BME280;2297;51.442;6.996;2022-10-31T08:42:31;100748.22;;;16.04;57.71
4570;BME280;2297;51.442;6.996;2022-10-31T08:44:58;100745.31;;;16.10;57.52
4570;BME280;2297;51.442;6.996;2022-10-31T08:47:25;100740.75;;;16.14;57.35
4570;BME280;2297;51.442;6.996;2022-10-31T08:49:53;100746.75;;;16.19;57.36
4570;BME280;2297;51.442;6.996;2022-10-31T08:52:22;100747.47;;;16.24;57.30
4570;BME280;2297;51.442;6.996;2022-10-31T08:54:50;100737.44;;;16.31;57.00
4570;BME280;2297;51.442;6.996;2022-10-31T08:57:17;100724.91;;;16.33;56.94
4570;BME280;2297;51.442;6.996;2022-10-31T08:59:44;100735.41;;;16.38;56.74
4570;BME280;2297;51.442;6.996;2022-10-31T09:02:10;100726.50;;;16.39;56.72
4570;BME280;2297;51.442;6.996;2022-10-31T09:04:37;100717.53;;;16.40;56.92
4570;BME280;2297;51.442;6.996;2022-10-31T09:07:03;100720.09;;;16.43;56.71
4570;BME280;2297;51.442;6.996;2022-10-31T09:09:30;100719.13;;;16.45;56.77
4570;BME280;2297;51.442;6.996;2022-10-31T09:11:58;100721.59;;;16.50;56.68
4570;BME280;2297;51.442;6.996;2022-10-31T09:14:25;100719.69;;;16.54;56.47
4570;BME280;2297;51.442;6.996;2022-10-31T09:16:52;100716.13;;;16.53;56.41
4570;BME280;2297;51.442;6.996;2022-10-31T09:19:18;100717.78;;;16.57;56.38
4570;BME280;2297;51.442;6.996;2022-10-31T09:21:45;100711.41;;;16.60;56.25
4570;BME280;2297;51.442;6.996;2022-10-31T09:24:11;100717.56;;;16.62;56.06
4570;BME280;2297;51.442;6.996;2022-10-31T09:26:38;100716.50;;;16.66;56.19
4570;BME280;2297;51.442;6.996;2022-10-31T09:29:06;100710.19;;;16.69;55.79
4570;BME280;2297;51.442;6.996;2022-10-31T09:31:44;100707.22;;;16.76;55.70
4570;BME280;2297;51.442;6.996;2022-10-31T09:34:10;100703.44;;;16.82;55.45
4570;BME280;2297;51.442;6.996;2022-10-31T09:36:37;100698.16;;;16.80;55.62
4570;BME280;2297;51.442;6.996;2022-10-31T09:39:04;100699.91;;;16.82;55.43
4570;BME280;2297;51.442;6.996;2022-10-31T09:41:43;100694.47;;;16.85;55.27
4570;BME280;2297;51.442;6.996;2022-10-31T09:44:20;100695.16;;;16.90;55.29
4570;BME280;2297;51.442;6.996;2022-10-31T09:46:55;100684.91;;;17.01;55.00
4570;BME280;2297;51.442;6.996;2022-10-31T09:49:40;100679.13;;;17.12;54.87
4570;BME280;2297;51.442;6.996;2022-10-31T09:52:18;100676.06;;;17.21;54.42
4570;BME280;2297;51.442;6.996;2022-10-31T09:54:49;100679.25;;;17.29;54.30
4570;BME280;2297;51.442;6.996;2022-10-31T09:57:23;100686.03;;;17.37;54.04
4570;BME280;2297;51.442;6.996;2022-10-31T09:59:52;100683.44;;;17.35;54.06
4570;BME280;2297;51.442;6.996;2022-10-31T10:02:23;100682.59;;;17.35;53.96
4570;BME280;2297;51.442;6.996;2022-10-31T10:04:54;100671.03;;;17.34;53.88
4570;BME280;2297;51.442;6.996;2022-10-31T10:07:30;100664.44;;;17.43;53.89
4570;BME280;2297;51.442;6.996;2022-10-31T10:10:00;100657.84;;;17.52;53.81
4570;BME280;2297;51.442;6.996;2022-10-31T10:12:38;100652.47;;;17.72;53.24
4570;BME280;2297;51.442;6.996;2022-10-31T10:15:25;100647.38;;;17.87;52.83
4570;BME280;2297;51.442;6.996;2022-10-31T10:18:00;100642.59;;;17.93;53.09
4570;BME280;2297;51.442;6.996;2022-10-31T10:20:31;100654.03;;;17.97;52.71
4570;BME280;2297;51.442;6.996;2022-10-31T10:23:08;100661.22;;;17.95;52.60
4570;BME280;2297;51.442;6.996;2022-10-31T10:25:38;100648.69;;;17.97;52.14
4570;BME280;2297;51.442;6.996;2022-10-31T10:28:13;100654.44;;;17.88;52.59
4570;BME280;2297;51.442;6.996;2022-10-31T10:37:30;100639.78;;;17.96;52.38
4570;BME280;2297;51.442;6.996;2022-10-31T10:40:04;100633.06;;;18.07;52.32
4570;BME280;2297;51.442;6.996;2022-10-31T10:42:33;100624.53;;;18.18;51.98
4570;BME280;2297;51.442;6.996;2022-10-31T10:45:18;100622.59;;;18.21;51.49
4570;BME280;2297;51.442;6.996;2022-10-31T10:48:08;100617.31;;;18.20;51.50
4570;BME280;2297;51.442;6.996;2022-10-31T10:50:41;100605.53;;;18.24;51.65
4570;BME280;2297;51.442;6.996;2022-10-31T10:53:25;100610.72;;;18.27;51.88
4570;BME280;2297;51.442;6.996;2022-10-31T10:56:07;100596.59;;;18.25;52.07
4570;BME280;2297;51.442;6.996;2022-10-31T10:58:38;100599.25;;;18.25;52.05
4570;BME280;2297;51.442;6.996;2022-10-31T11:01:10;100593.91;;;18.25;52.05
4570;BME280;2297;51.442;6.996;2022-10-31T11:03:38;100595.50;;;18.29;52.27
4570;BME280;2297;51.442;6.996;2022-10-31T11:06:16;100587.97;;;18.37;51.53
4570;BME280;2297;51.442;6.996;2022-10-31T11:08:47;100581.50;;;18.41;51.82
4570;BME280;2297;51.442;6.996;2022-10-31T11:11:22;100566.22;;;18.45;51.87
4570;BME280;2297;51.442;6.996;2022-10-31T11:13:55;100559.19;;;18.42;51.81
4570;BME280;2297;51.442;6.996;2022-10-31T11:16:29;100560.97;;;18.43;51.64
4570;BME280;2297;51.442;6.996;2022-10-31T11:19:07;100554.69;;;18.43;51.61
4570;BME280;2297;51.442;6.996;2022-10-31T11:21:34;100550.31;;;18.42;51.70
4570;BME280;2297;51.442;6.996;2022-10-31T11:24:13;100547.50;;;18.45;51.55
4570;BME280;2297;51.442;6.996;2022-10-31T11:26:42;100542.88;;;18.49;51.70
4570;BME280;2297;51.442;6.996;2022-10-31T11:29:14;100537.91;;;18.58;51.55
4570;BME280;2297;51.442;6.996;2022-10-31T11:31:41;100544.44;;;18.70;51.16
4570;BME280;2297;51.442;6.996;2022-10-31T11:34:16;100543.88;;;18.81;50.92
4570;BME280;2297;51.442;6.996;2022-10-31T11:43:29;100530.53;;;19.15;49.91
4570;BME280;2297;51.442;6.996;2022-10-31T11:45:56;100521.75;;;19.12;49.79
4570;BME280;2297;51.442;6.996;2022-10-31T11:48:24;100522.69;;;19.11;49.70
4570;BME280;2297;51.442;6.996;2022-10-31T11:50:52;100508.34;;;19.12;49.84
4570;BME280;2297;51.442;6.996;2022-10-31T11:53:26;100505.69;;;19.12;49.69
4570;BME280;2297;51.442;6.996;2022-10-31T11:56:09;100503.63;;;19.18;49.59
4570;BME280;2297;51.442;6.996;2022-10-31T11:58:38;100501.75;;;19.20;49.52
4570;BME280;2297;51.442;6.996;2022-10-31T12:01:24;100511.94;;;19.29;49.37
4570;BME280;2297;51.442;6.996;2022-10-31T12:03:57;100509.75;;;19.37;49.49
4570;BME280;2297;51.442;6.996;2022-10-31T12:06:31;100506.09;;;19.38;49.42
4570;BME280;2297;51.442;6.996;2022-10-31T12:08:59;100497.13;;;19.39;49.38
4570;BME280;2297;51.442;6.996;2022-10-31T12:11:44;100491.16;;;19.34;49.34
4570;BME280;2297;51.442;6.996;2022-10-31T12:14:23;100484.84;;;19.35;49.78
4570;BME280;2297;51.442;6.996;2022-10-31T12:16:56;100479.81;;;19.29;49.94
4570;BME280;2297;51.442;6.996;2022-10-31T12:19:32;100460.31;;;19.27;49.80
4570;BME280;2297;51.442;6.996;2022-10-31T12:22:08;100463.63;;;19.32;49.42
4570;BME280;2297;51.442;6.996;2022-10-31T12:24:48;100463.09;;;19.41;49.38
4570;BME280;2297;51.442;6.996;2022-10-31T12:27:25;100470.00;;;19.45;49.41
4570;BME280;2297;51.442;6.996;2022-10-31T12:30:07;100454.38;;;19.54;49.10
4570;BME280;2297;51.442;6.996;2022-10-31T12:33:08;100464.06;;;19.56;48.80
4570;BME280;2297;51.442;6.996;2022-10-31T12:35:49;100450.13;;;19.66;48.62
4570;BME280;2297;51.442;6.996;2022-10-31T12:38:51;100451.25;;;19.77;48.42
4570;BME280;2297;51.442;6.996;2022-10-31T12:41:36;100442.28;;;19.78;48.33
4570;BME280;2297;51.442;6.996;2022-10-31T12:44:06;100435.78;;;19.83;48.26
4570;BME280;2297;51.442;6.996;2022-10-31T12:46:52;100427.47;;;19.87;48.19
4570;BME280;2297;51.442;6.996;2022-10-31T12:49:33;100419.94;;;19.94;48.10
4570;BME280;2297;51.442;6.996;2022-10-31T12:52:14;100413.97;;;20.05;48.22
4570;BME280;2297;51.442;6.996;2022-10-31T12:54:55;100399.94;;;20.16;47.88
4570;BME280;2297;51.442;6.996;2022-10-31T12:57:29;100397.44;;;20.27;47.68
4570;BME280;2297;51.442;6.996;2022-10-31T13:00:00;100393.25;;;20.37;47.55
4570;BME280;2297;51.442;6.996;2022-10-31T13:02:33;100383.50;;;20.51;47.27
4570;BME280;2297;51.442;6.996;2022-10-31T13:05:05;100389.09;;;20.62;47.02
4570;BME280;2297;51.442;6.996;2022-10-31T13:07:36;100378.56;;;20.73;46.22
4570;BME280;2297;51.442;6.996;2022-10-31T13:10:10;100381.06;;;20.76;45.88
4570;BME280;2297;51.442;6.996;2022-10-31T13:12:41;100380.28;;;20.74;46.06
4570;BME280;2297;51.442;6.996;2022-10-31T13:15:14;100372.63;;;20.83;45.46
4570;BME280;2297;51.442;6.996;2022-10-31T13:17:46;100365.34;;;20.70;46.28
4570;BME280;2297;51.442;6.996;2022-10-31T13:20:19;100355.19;;;20.75;45.78
4570;BME280;2297;51.442;6.996;2022-10-31T13:22:50;100346.00;;;20.80;45.61
4570;BME280;2297;51.442;6.996;2022-10-31T13:25:21;100337.16;;;20.77;45.48
4570;BME280;2297;51.442;6.996;2022-10-31T13:27:54;100328.06;;;20.80;45.42
4570;BME280;2297;51.442;6.996;2022-10-31T13:30:23;100316.69;;;20.76;45.16
4570;BME280;2297;51.442;6.996;2022-10-31T13:32:56;100315.31;;;20.69;44.92
4570;BME280;2297;51.442;6.996;2022-10-31T13:35:29;100309.47;;;20.77;44.85
4570;BME280;2297;51.442;6.996;2022-10-31T13:38:05;100304.09;;;20.77;45.07
4570;BME280;2297;51.442;6.996;2022-10-31T13:40:42;100299.41;;;20.81;44.88
4570;BME280;2297;51.442;6.996;2022-10-31T13:43:18;100288.25;;;20.87;44.73
4570;BME280;2297;51.442;6.996;2022-10-31T13:46:21;100287.97;;;20.91;44.47